sensor_id;sensor_type;location;lat;lon;timestamp;pressure;altitude;pressure_sealevel;temperature;humidity
55914;BME280;58179;48.776;9.124;2023-09-19T00:00:37;97019.19;;;15.70;100.00
55914;BME280;58179;48.776;9.124;2023-09-19T00:03:04;97021.84;;;15.70;100.00
55914;BME280;58179;48.776;9.124;2023-09-19T00:05:35;97020.66;;;15.76;100.00
55914;BME280;58179;48.776;9.124;2023-09-19T00:08:02;97032.81;;;15.68;100.00
55914;BME280;58179;48.776;9.124;2023-09-19T00:10:30;97034.38;;;15.69;100.00
55914;BME280;58179;48.776;9.124;2023-09-19T00:12:58;97041.59;;;15.69;100.00
55914;BME280;58179;48.776;9.124;2023-09-19T00:15:35;97034.09;;;15.71;100.00
55914;BME280;58179;48.776;9.124;2023-09-19T00:18:02;97041.50;;;15.74;100.00
55914;BME280;58179;48.776;9.124;2023-09-19T00:20:35;97030.31;;;15.72;100.00
55914;BME280;58179;48.776;9.124;2023-09-19T00:23:01;97043.97;;;15.70;100.00
55914;BME280;58179;48.776;9.124;2023-09-19T00:25:35;97047.34;;;15.76;100.00
55914;BME280;58179;48.776;9.124;2023-09-19T00:28:01;97049.41;;;15.79;100.00
55914;BME280;58179;48.776;9.124;2023-09-19T00:30:27;97052.59;;;15.81;100.00
55914;BME280;58179;48.776;9.124;2023-09-19T00:32:53;97041.34;;;15.84;100.00
55914;BME280;58179;48.776;9.124;2023-09-19T00:35:20;97051.22;;;15.83;100.00
55914;BME280;58179;48.776;9.124;2023-09-19T00:37:51;97046.97;;;15.82;100.00
55914;BME280;58179;48.776;9.124;2023-09-19T00:40:17;97051.91;;;15.75;100.00
55914;BME280;58179;48.776;9.124;2023-09-19T00:42:44;97056.16;;;15.76;100.00
55914;BME280;58179;48.776;9.124;2023-09-19T00:45:12;97053.69;;;15.80;100.00
55914;BME280;58179;48.776;9.124;2023-09-19T00:47:39;97060.88;;;15.79;100.00
55914;BME280;58179;48.776;9.124;2023-09-19T00:50:07;97060.78;;;15.71;100.00
55914;BME280;58179;48.776;9.124;2023-09-19T00:52:34;97066.03;;;15.76;100.00
55914;BME280;58179;48.776;9.124;2023-09-19T00:55:04;97068.59;;;15.81;100.00
55914;BME280;58179;48.776;9.124;2023-09-19T00:57:31;97075.91;;;15.75;100.00
55914;BME280;58179;48.776;9.124;2023-09-19T00:59:59;97066.41;;;15.69;100.00
55914;BME280;58179;48.776;9.124;2023-09-19T01:02:25;97066.31;;;15.74;100.00
55914;BME280;58179;48.776;9.124;2023-09-19T01:04:56;97072.22;;;15.71;100.00
55914;BME280;58179;48.776;9.124;2023-09-19T01:07:22;97085.50;;;15.76;100.00
55914;BME280;58179;48.776;9.124;2023-09-19T01:09:49;97075.81;;;15.80;100.00
55914;BME280;58179;48.776;9.124;2023-09-19T01:12:24;97076.66;;;15.62;100.00
55914;BME280;58179;48.776;9.124;2023-09-19T01:15:02;97077.94;;;15.65;100.00
55914;BME280;58179;48.776;9.124;2023-09-19T01:17:38;97079.25;;;15.67;100.00
55914;BME280;58179;48.776;9.124;2023-09-19T01:20:25;97079.47;;;15.71;100.00
55914;BME280;58179;48.776;9.124;2023-09-19T01:23:00;97082.63;;;15.73;100.00
55914;BME280;58179;48.776;9.124;2023-09-19T01:25:42;97090.34;;;15.74;100.00
55914;BME280;58179;48.776;9.124;2023-09-19T01:28:27;97090.06;;;15.76;100.00
55914;BME280;58179;48.776;9.124;2023-09-19T01:30:58;97092.50;;;15.72;100.00
55914;BME280;58179;48.776;9.124;2023-09-19T01:33:26;97097.56;;;15.74;100.00
55914;BME280;58179;48.776;9.124;2023-09-19T01:35:52;97089.81;;;15.72;100.00
55914;BME280;58179;48.776;9.124;2023-09-19T01:38:19;97088.25;;;15.71;100.00
55914;BME280;58179;48.776;9.124;2023-09-19T01:40:58;97087.66;;;15.74;100.00
55914;BME280;58179;48.776;9.124;2023-09-19T01:43:34;97098.84;;;15.76;100.00
55914;BME280;58179;48.776;9.124;2023-09-19T01:46:09;97098.16;;;15.71;100.00
55914;BME280;58179;48.776;9.124;2023-09-19T01:48:41;97093.88;;;15.70;100.00
55914;BME280;58179;48.776;9.124;2023-09-19T01:51:14;97097.03;;;15.72;100.00
55914;BME280;58179;48.776;9.124;2023-09-19T01:53:51;97097.13;;;15.67;100.00
55914;BME280;58179;48.776;9.124;2023-09-19T01:56:25;97097.50;;;15.60;100.00
55914;BME280;58179;48.776;9.124;2023-09-19T01:58:56;97106.81;;;15.63;100.00
55914;BME280;58179;48.776;9.124;2023-09-19T02:01:26;97118.56;;;15.62;100.00
55914;BME280;58179;48.776;9.124;2023-09-19T02:03:54;97117.75;;;15.61;100.00
55914;BME280;58179;48.776;9.124;2023-09-19T02:06:22;97124.00;;;15.52;100.00
55914;BME280;58179;48.776;9.124;2023-09-19T02:08:51;97122.50;;;15.45;100.00
55914;BME280;58179;48.776;9.124;2023-09-19T02:11:17;97122.50;;;15.45;100.00
55914;BME280;58179;48.776;9.124;2023-09-19T02:13:44;97127.81;;;15.45;100.00
55914;BME280;58179;48.776;9.124;2023-09-19T02:16:10;97115.06;;;15.42;100.00
55914;BME280;58179;48.776;9.124;2023-09-19T02:18:38;97128.38;;;15.42;100.00
55914;BME280;58179;48.776;9.124;2023-09-19T02:21:05;97126.31;;;15.39;100.00
55914;BME280;58179;48.776;9.124;2023-09-19T02:23:33;97131.69;;;15.34;100.00
55914;BME280;58179;48.776;9.124;2023-09-19T02:25:59;97134.88;;;15.36;100.00
55914;BME280;58179;48.776;9.124;2023-09-19T02:28:29;97127.16;;;15.35;100.00
55914;BME280;58179;48.776;9.124;2023-09-19T02:30:56;97130.34;;;15.37;100.00
55914;BME280;58179;48.776;9.124;2023-09-19T02:33:22;97125.00;;;15.18;100.00
55914;BME280;58179;48.776;9.124;2023-09-19T02:35:54;97122.47;;;15.27;100.00
55914;BME280;58179;48.776;9.124;2023-09-19T02:38:20;97129.97;;;15.25;100.00
55914;BME280;58179;48.776;9.124;2023-09-19T02:40:50;97134.88;;;15.18;100.00
55914;BME280;58179;48.776;9.124;2023-09-19T02:43:17;97132.50;;;15.16;100.00
55914;BME280;58179;48.776;9.124;2023-09-19T02:45:44;97143.44;;;15.15;100.00
55914;BME280;58179;48.776;9.124;2023-09-19T02:48:10;97140.50;;;15.16;100.00
55914;BME280;58179;48.776;9.124;2023-09-19T02:50:37;97147.97;;;15.14;100.00
55914;BME280;58179;48.776;9.124;2023-09-19T02:53:06;97146.38;;;15.13;100.00
55914;BME280;58179;48.776;9.124;2023-09-19T02:55:33;97149.56;;;15.15;100.00
55914;BME280;58179;48.776;9.124;2023-09-19T02:58:00;97147.53;;;15.07;100.00
55914;BME280;58179;48.776;9.124;2023-09-19T03:00:28;97153.03;;;15.16;100.00
55914;BME280;58179;48.776;9.124;2023-09-19T03:02:55;97163.41;;;15.17;100.00
55914;BME280;58179;48.776;9.124;2023-09-19T03:05:21;97161.53;;;15.18;100.00
55914;BME280;58179;48.776;9.124;2023-09-19T03:07:49;97154.03;;;15.20;100.00
55914;BME280;58179;48.776;9.124;2023-09-19T03:10:21;97160.31;;;15.10;100.00
55914;BME280;58179;48.776;9.124;2023-09-19T03:12:48;97159.09;;;15.21;100.00
55914;BME280;58179;48.776;9.124;2023-09-19T03:15:14;97158.56;;;15.19;100.00
55914;BME280;58179;48.776;9.124;2023-09-19T03:17:48;97167.75;;;15.32;100.00
55914;BME280;58179;48.776;9.124;2023-09-19T03:20:15;97158.38;;;15.34;100.00
55914;BME280;58179;48.776;9.124;2023-09-19T03:22:45;97164.22;;;15.36;100.00
55914;BME280;58179;48.776;9.124;2023-09-19T03:25:12;97162.34;;;15.37;100.00
55914;BME280;58179;48.776;9.124;2023-09-19T03:27:40;97165.25;;;15.40;100.00
55914;BME280;58179;48.776;9.124;2023-09-19T03:30:07;97162.59;;;15.40;100.00
55914;BME280;58179;48.776;9.124;2023-09-19T03:32:44;97156.94;;;15.42;100.00
55914;BME280;58179;48.776;9.124;2023-09-19T03:35:11;97161.19;;;15.43;100.00
55914;BME280;58179;48.776;9.124;2023-09-19T03:37:40;97147.06;;;15.42;100.00
55914;BME280;58179;48.776;9.124;2023-09-19T03:40:07;97156.66;;;15.43;100.00
55914;BME280;58179;48.776;9.124;2023-09-19T03:42:33;97155.06;;;15.42;100.00
55914;BME280;58179;48.776;9.124;2023-09-19T03:45:03;97159.31;;;15.43;100.00
55914;BME280;58179;48.776;9.124;2023-09-19T03:47:30;97150.25;;;15.44;100.00
55914;BME280;58179;48.776;9.124;2023-09-19T03:49:56;97152.91;;;15.44;100.00
55914;BME280;58179;48.776;9.124;2023-09-19T03:52:22;97151.84;;;15.45;100.00
55914;BME280;58179;48.776;9.124;2023-09-19T03:54:48;97156.88;;;15.47;100.00
55914;BME280;58179;48.776;9.124;2023-09-19T03:57:15;97153.72;;;15.45;100.00
55914;BME280;58179;48.776;9.124;2023-09-19T03:59:46;97159.59;;;15.42;100.00
55914;BME280;58179;48.776;9.124;2023-09-19T04:02:14;97163.38;;;15.41;100.00
55914;BME280;58179;48.776;9.124;2023-09-19T04:04:48;97159.91;;;15.40;100.00
55914;BME280;58179;48.776;9.124;2023-09-19T04:07:14;97150.88;;;15.36;100.00
55914;BME280;58179;48.776;9.124;2023-09-19T04:09:40;97157.28;;;15.35;100.00
55914;BME280;58179;48.776;9.124;2023-09-19T04:12:08;97158.69;;;15.33;100.00
55914;BME280;58179;48.776;9.124;2023-09-19T04:14:37;97160.25;;;15.34;100.00
55914;BME280;58179;48.776;9.124;2023-09-19T04:17:04;97154.91;;;15.34;100.00
55914;BME280;58179;48.776;9.124;2023-09-19T04:19:32;97166.97;;;15.31;100.00
55914;BME280;58179;48.776;9.124;2023-09-19T04:21:58;97166.44;;;15.29;100.00
55914;BME280;58179;48.776;9.124;2023-09-19T04:24:25;97170.47;;;15.27;100.00
55914;BME280;58179;48.776;9.124;2023-09-19T04:26:51;97169.66;;;15.26;100.00
55914;BME280;58179;48.776;9.124;2023-09-19T04:29:18;97175.06;;;15.21;100.00
55914;BME280;58179;48.776;9.124;2023-09-19T04:31:45;97170.53;;;15.22;100.00
55914;BME280;58179;48.776;9.124;2023-09-19T04:34:12;97172.13;;;15.23;100.00
55914;BME280;58179;48.776;9.124;2023-09-19T04:36:44;97177.19;;;15.24;100.00
55914;BME280;58179;48.776;9.124;2023-09-19T04:39:11;97172.66;;;15.25;100.00
55914;BME280;58179;48.776;9.124;2023-09-19T04:41:38;97174.00;;;15.22;100.00
55914;BME280;58179;48.776;9.124;2023-09-19T04:44:07;97183.00;;;15.26;100.00
55914;BME280;58179;48.776;9.124;2023-09-19T04:46:33;97182.25;;;15.26;100.00
55914;BME280;58179;48.776;9.124;2023-09-19T04:49:00;97188.06;;;15.28;100.00
55914;BME280;58179;48.776;9.124;2023-09-19T04:51:26;97188.66;;;15.25;100.00
55914;BME280;58179;48.776;9.124;2023-09-19T04:53:56;97191.88;;;15.22;100.00
55914;BME280;58179;48.776;9.124;2023-09-19T04:56:22;97209.53;;;15.18;100.00
55914;BME280;58179;48.776;9.124;2023-09-19T04:58:50;97207.97;;;15.11;100.00
55914;BME280;58179;48.776;9.124;2023-09-19T05:01:16;97209.41;;;15.04;100.00
55914;BME280;58179;48.776;9.124;2023-09-19T05:03:42;97209.75;;;14.97;100.00
55914;BME280;58179;48.776;9.124;2023-09-19T05:06:08;97213.78;;;14.95;100.00
55914;BME280;58179;48.776;9.124;2023-09-19T05:08:35;97215.41;;;14.91;100.00
55914;BME280;58179;48.776;9.124;2023-09-19T05:11:03;97216.47;;;14.90;100.00
55914;BME280;58179;48.776;9.124;2023-09-19T05:13:29;97217.28;;;14.90;100.00
55914;BME280;58179;48.776;9.124;2023-09-19T05:16:00;97212.22;;;14.89;100.00
55914;BME280;58179;48.776;9.124;2023-09-19T05:21:03;97215.69;;;14.89;100.00
55914;BME280;58179;48.776;9.124;2023-09-19T05:23:30;97223.41;;;14.91;100.00
55914;BME280;58179;48.776;9.124;2023-09-19T05:25:57;97231.66;;;14.94;100.00
55914;BME280;58179;48.776;9.124;2023-09-19T05:28:27;97228.97;;;14.94;100.00
55914;BME280;58179;48.776;9.124;2023-09-19T05:30:53;97233.00;;;14.92;100.00
55914;BME280;58179;48.776;9.124;2023-09-19T05:33:19;97229.25;;;14.93;100.00
55914;BME280;58179;48.776;9.124;2023-09-19T05:35:47;97242.59;;;14.93;100.00
55914;BME280;58179;48.776;9.124;2023-09-19T05:38:14;97239.63;;;14.94;100.00
55914;BME280;58179;48.776;9.124;2023-09-19T05:53:35;97272.13;;;14.67;100.00
55914;BME280;58179;48.776;9.124;2023-09-19T05:56:01;97271.63;;;14.65;100.00
55914;BME280;58179;48.776;9.124;2023-09-19T05:58:27;97278.03;;;14.64;100.00
55914;BME280;58179;48.776;9.124;2023-09-19T06:00:54;97291.03;;;14.66;100.00
55914;BME280;58179;48.776;9.124;2023-09-19T06:03:24;97271.63;;;14.65;100.00
55914;BME280;58179;48.776;9.124;2023-09-19T06:05:50;97285.16;;;14.69;100.00
55914;BME280;58179;48.776;9.124;2023-09-19T06:08:18;97285.69;;;14.71;100.00
55914;BME280;58179;48.776;9.124;2023-09-19T06:10:46;97293.16;;;14.69;100.00
55914;BME280;58179;48.776;9.124;2023-09-19T06:13:13;97292.69;;;14.62;100.00
55914;BME280;58179;48.776;9.124;2023-09-19T06:15:39;97302.31;;;14.58;100.00
55914;BME280;58179;48.776;9.124;2023-09-19T06:18:11;97295.66;;;14.55;100.00
55914;BME280;58179;48.776;9.124;2023-09-19T06:20:41;97294.94;;;14.50;100.00
55914;BME280;58179;48.776;9.124;2023-09-19T06:23:10;97294.66;;;14.46;100.00
55914;BME280;58179;48.776;9.124;2023-09-19T06:25:36;97298.41;;;14.45;100.00
55914;BME280;58179;48.776;9.124;2023-09-19T06:28:04;97290.41;;;14.45;100.00
55914;BME280;58179;48.776;9.124;2023-09-19T06:30:31;97285.09;;;14.45;100.00
55914;BME280;58179;48.776;9.124;2023-09-19T06:32:59;97290.13;;;14.47;100.00
55914;BME280;58179;48.776;9.124;2023-09-19T06:35:26;97289.13;;;14.43;100.00
55914;BME280;58179;48.776;9.124;2023-09-19T06:37:52;97294.94;;;14.45;100.00
55914;BME280;58179;48.776;9.124;2023-09-19T06:40:19;97299.72;;;14.48;100.00
55914;BME280;58179;48.776;9.124;2023-09-19T06:42:46;97299.69;;;14.53;100.00
55914;BME280;58179;48.776;9.124;2023-09-19T06:45:15;97303.94;;;14.54;100.00
55914;BME280;58179;48.776;9.124;2023-09-19T06:47:44;97312.19;;;14.57;100.00
55914;BME280;58179;48.776;9.124;2023-09-19T06:50:11;97304.69;;;14.59;100.00
55914;BME280;58179;48.776;9.124;2023-09-19T06:52:41;97309.41;;;14.67;100.00
55914;BME280;58179;48.776;9.124;2023-09-19T06:55:08;97299.50;;;14.78;100.00
55914;BME280;58179;48.776;9.124;2023-09-19T06:57:36;97302.09;;;14.83;100.00
55914;BME280;58179;48.776;9.124;2023-09-19T07:00:02;97308.69;;;14.91;100.00
55914;BME280;58179;48.776;9.124;2023-09-19T07:02:30;97309.97;;;14.98;100.00
55914;BME280;58179;48.776;9.124;2023-09-19T07:04:56;97322.16;;;15.04;100.00
55914;BME280;58179;48.776;9.124;2023-09-19T07:07:22;97327.41;;;15.15;100.00
55914;BME280;58179;48.776;9.124;2023-09-19T07:09:48;97326.84;;;15.18;100.00
55914;BME280;58179;48.776;9.124;2023-09-19T07:12:15;97327.06;;;15.21;100.00
55914;BME280;58179;48.776;9.124;2023-09-19T07:14:41;97338.59;;;15.17;100.00
55914;BME280;58179;48.776;9.124;2023-09-19T07:17:07;97338.06;;;15.15;100.00
55914;BME280;58179;48.776;9.124;2023-09-19T07:19:35;97337.81;;;15.11;100.00
55914;BME280;58179;48.776;9.124;2023-09-19T07:22:01;97346.91;;;15.10;100.00
55914;BME280;58179;48.776;9.124;2023-09-19T07:24:28;97345.59;;;15.07;100.00
55914;BME280;58179;48.776;9.124;2023-09-19T07:26:54;97345.59;;;15.07;100.00
55914;BME280;58179;48.776;9.124;2023-09-19T07:29:21;97345.28;;;15.14;100.00
55914;BME280;58179;48.776;9.124;2023-09-19T07:31:47;97350.34;;;15.16;100.00
55914;BME280;58179;48.776;9.124;2023-09-19T07:34:14;97351.06;;;15.21;100.00
55914;BME280;58179;48.776;9.124;2023-09-19T07:36:41;97348.31;;;15.31;100.00
55914;BME280;58179;48.776;9.124;2023-09-19T07:39:08;97353.06;;;15.34;100.00
55914;BME280;58179;48.776;9.124;2023-09-19T07:41:34;97358.66;;;15.38;100.00
55914;BME280;58179;48.776;9.124;2023-09-19T07:44:00;97365.78;;;15.42;100.00
55914;BME280;58179;48.776;9.124;2023-09-19T07:46:27;97361.19;;;15.53;100.00
55914;BME280;58179;48.776;9.124;2023-09-19T07:48:53;97364.31;;;15.60;100.00
55914;BME280;58179;48.776;9.124;2023-09-19T07:51:19;97364.75;;;15.67;100.00
55914;BME280;58179;48.776;9.124;2023-09-19T07:53:47;97366.28;;;15.73;100.00
55914;BME280;58179;48.776;9.124;2023-09-19T07:56:14;97359.81;;;15.79;100.00
55914;BME280;58179;48.776;9.124;2023-09-19T07:58:41;97360.69;;;15.75;100.00
55914;BME280;58179;48.776;9.124;2023-09-19T08:01:10;97366.47;;;15.82;100.00
55914;BME280;58179;48.776;9.124;2023-09-19T08:03:37;97371.69;;;15.92;100.00
55914;BME280;58179;48.776;9.124;2023-09-19T08:06:10;97369.47;;;15.99;100.00
55914;BME280;58179;48.776;9.124;2023-09-19T08:08:37;97373.25;;;16.17;100.00
55914;BME280;58179;48.776;9.124;2023-09-19T08:11:05;97382.66;;;16.33;100.00
55914;BME280;58179;48.776;9.124;2023-09-19T08:13:39;97384.41;;;16.43;100.00
55914;BME280;58179;48.776;9.124;2023-09-19T08:16:15;97389.00;;;16.56;100.00
55914;BME280;58179;48.776;9.124;2023-09-19T08:18:41;97392.44;;;16.61;100.00
55914;BME280;58179;48.776;9.124;2023-09-19T08:21:08;97391.47;;;16.52;100.00
55914;BME280;58179;48.776;9.124;2023-09-19T08:23:37;97400.09;;;16.68;100.00
55914;BME280;58179;48.776;9.124;2023-09-19T08:26:06;97403.69;;;16.77;100.00
55914;BME280;58179;48.776;9.124;2023-09-19T08:28:35;97400.53;;;16.75;100.00
55914;BME280;58179;48.776;9.124;2023-09-19T08:31:05;97400.03;;;16.73;100.00
55914;BME280;58179;48.776;9.124;2023-09-19T08:33:32;97398.13;;;16.92;100.00
55914;BME280;58179;48.776;9.124;2023-09-19T08:35:59;97404.91;;;17.03;100.00
55914;BME280;58179;48.776;9.124;2023-09-19T08:38:25;97398.47;;;17.05;100.00
55914;BME280;58179;48.776;9.124;2023-09-19T08:40:57;97403.59;;;17.01;100.00
55914;BME280;58179;48.776;9.124;2023-09-19T08:43:27;97401.59;;;16.93;100.00
55914;BME280;58179;48.776;9.124;2023-09-19T08:46:03;97401.00;;;16.96;100.00
55914;BME280;58179;48.776;9.124;2023-09-19T08:48:32;97412.00;;;16.94;100.00
55914;BME280;58179;48.776;9.124;2023-09-19T08:51:02;97411.00;;;16.90;100.00
55914;BME280;58179;48.776;9.124;2023-09-19T08:53:36;97404.19;;;16.98;100.00
55914;BME280;58179;48.776;9.124;2023-09-19T08:56:10;97404.06;;;16.89;100.00
55914;BME280;58179;48.776;9.124;2023-09-19T08:58:44;97411.75;;;17.10;100.00
55914;BME280;58179;48.776;9.124;2023-09-19T09:01:11;97408.84;;;17.25;100.00
55914;BME280;58179;48.776;9.124;2023-09-19T09:03:41;97407.94;;;17.29;100.00
55914;BME280;58179;48.776;9.124;2023-09-19T09:06:09;97407.66;;;17.31;100.00
55914;BME280;58179;48.776;9.124;2023-09-19T09:08:37;97410.88;;;17.47;100.00
55914;BME280;58179;48.776;9.124;2023-09-19T09:11:06;97404.47;;;17.61;100.00
55914;BME280;58179;48.776;9.124;2023-09-19T09:13:35;97408.56;;;17.72;100.00
55914;BME280;58179;48.776;9.124;2023-09-19T09:16:03;97414.44;;;17.88;100.00
55914;BME280;58179;48.776;9.124;2023-09-19T09:18:30;97416.03;;;17.89;100.00
55914;BME280;58179;48.776;9.124;2023-09-19T09:20:56;97421.06;;;17.63;100.00
55914;BME280;58179;48.776;9.124;2023-09-19T09:23:22;97430.31;;;17.52;100.00
55914;BME280;58179;48.776;9.124;2023-09-19T09:25:49;97418.50;;;17.72;100.00
55914;BME280;58179;48.776;9.124;2023-09-19T09:28:22;97421.06;;;17.63;100.00
55914;BME280;58179;48.776;9.124;2023-09-19T09:30:49;97412.06;;;18.00;100.00
55914;BME280;58179;48.776;9.124;2023-09-19T09:33:17;97415.63;;;18.09;100.00
55914;BME280;58179;48.776;9.124;2023-09-19T09:35:52;97416.13;;;18.11;100.00
55914;BME280;58179;48.776;9.124;2023-09-19T09:38:19;97412.03;;;18.28;100.00
55914;BME280;58179;48.776;9.124;2023-09-19T09:40:50;97418.19;;;18.14;100.00
55914;BME280;58179;48.776;9.124;2023-09-19T09:43:32;97427.03;;;18.01;100.00
55914;BME280;58179;48.776;9.124;2023-09-19T09:46:10;97419.56;;;18.12;100.00
55914;BME280;58179;48.776;9.124;2023-09-19T09:48:59;97423.75;;;18.32;100.00
55914;BME280;58179;48.776;9.124;2023-09-19T09:51:45;97430.16;;;18.44;100.00
55914;BME280;58179;48.776;9.124;2023-09-19T09:54:24;97419.69;;;18.21;100.00
55914;BME280;58179;48.776;9.124;2023-09-19T09:56:54;97426.09;;;18.47;100.00
55914;BME280;58179;48.776;9.124;2023-09-19T09:59:21;97417.44;;;18.50;100.00
55914;BME280;58179;48.776;9.124;2023-09-19T10:01:50;97414.66;;;18.69;100.00
55914;BME280;58179;48.776;9.124;2023-09-19T10:04:27;97419.69;;;18.84;100.00
55914;BME280;58179;48.776;9.124;2023-09-19T10:06:57;97418.59;;;18.85;100.00
55914;BME280;58179;48.776;9.124;2023-09-19T10:09:23;97425.84;;;18.84;100.00
55914;BME280;58179;48.776;9.124;2023-09-19T10:12:02;97430.63;;;18.74;100.00
55914;BME280;58179;48.776;9.124;2023-09-19T10:14:32;97418.56;;;18.49;100.00
55914;BME280;58179;48.776;9.124;2023-09-19T10:17:01;97419.56;;;18.39;100.00
55914;BME280;58179;48.776;9.124;2023-09-19T10:19:37;97423.44;;;18.47;100.00
55914;BME280;58179;48.776;9.124;2023-09-19T10:22:13;97426.19;;;18.55;100.00
55914;BME280;58179;48.776;9.124;2023-09-19T10:24:47;97433.75;;;18.53;100.00
55914;BME280;58179;48.776;9.124;2023-09-19T10:27:17;97413.69;;;18.51;100.00
55914;BME280;58179;48.776;9.124;2023-09-19T10:29:46;97411.19;;;18.54;100.00
55914;BME280;58179;48.776;9.124;2023-09-19T10:32:16;97427.09;;;19.01;100.00
55914;BME280;58179;48.776;9.124;2023-09-19T10:34:47;97417.09;;;19.15;100.00
55914;BME280;58179;48.776;9.124;2023-09-19T10:37:16;97407.88;;;18.85;100.00
55914;BME280;58179;48.776;9.124;2023-09-19T10:39:46;97400.09;;;18.61;100.00
55914;BME280;58179;48.776;9.124;2023-09-19T10:42:19;97404.78;;;18.28;100.00
55914;BME280;58179;48.776;9.124;2023-09-19T10:44:46;97427.41;;;18.36;100.00
55914;BME280;58179;48.776;9.124;2023-09-19T10:47:15;97420.34;;;18.53;100.00
55914;BME280;58179;48.776;9.124;2023-09-19T10:49:45;97414.16;;;18.67;100.00
55914;BME280;58179;48.776;9.124;2023-09-19T10:52:13;97418.31;;;18.86;100.00
55914;BME280;58179;48.776;9.124;2023-09-19T10:54:46;97433.97;;;18.93;100.00
55914;BME280;58179;48.776;9.124;2023-09-19T10:57:20;97400.44;;;19.04;100.00
55914;BME280;58179;48.776;9.124;2023-09-19T11:00:02;97400.13;;;18.83;100.00
55914;BME280;58179;48.776;9.124;2023-09-19T11:02:33;97416.56;;;18.68;100.00
55914;BME280;58179;48.776;9.124;2023-09-19T11:05:13;97405.47;;;18.47;100.00
55914;BME280;58179;48.776;9.124;2023-09-19T11:07:57;97402.50;;;18.22;100.00
55914;BME280;58179;48.776;9.124;2023-09-19T11:10:44;97419.75;;;18.43;100.00
55914;BME280;58179;48.776;9.124;2023-09-19T11:13:25;97425.41;;;18.69;100.00
55914;BME280;58179;48.776;9.124;2023-09-19T11:16:18;97398.03;;;18.80;100.00
55914;BME280;58179;48.776;9.124;2023-09-19T11:18:52;97413.25;;;19.07;100.00
55914;BME280;58179;48.776;9.124;2023-09-19T11:21:43;97394.25;;;19.26;100.00
55914;BME280;58179;48.776;9.124;2023-09-19T11:24:33;97376.25;;;19.49;100.00
55914;BME280;58179;48.776;9.124;2023-09-19T11:27:16;97395.69;;;19.85;100.00
55914;BME280;58179;48.776;9.124;2023-09-19T11:29:44;97367.47;;;20.05;100.00
55914;BME280;58179;48.776;9.124;2023-09-19T11:32:11;97377.06;;;20.37;100.00
55914;BME280;58179;48.776;9.124;2023-09-19T11:34:44;97355.09;;;20.52;100.00
55914;BME280;58179;48.776;9.124;2023-09-19T11:40:27;97350.81;;;20.94;100.00
55914;BME280;58179;48.776;9.124;2023-09-19T11:42:54;97358.84;;;21.11;100.00
55914;BME280;58179;48.776;9.124;2023-09-19T11:48:27;97339.47;;;21.44;100.00
55914;BME280;58179;48.776;9.124;2023-09-19T11:50:55;97335.84;;;21.78;100.00
55914;BME280;58179;48.776;9.124;2023-09-19T11:53:23;97333.75;;;21.83;100.00
55914;BME280;58179;48.776;9.124;2023-09-19T11:55:51;97325.38;;;22.14;100.00
55914;BME280;58179;48.776;9.124;2023-09-19T11:58:19;97342.16;;;22.20;100.00
55914;BME280;58179;48.776;9.124;2023-09-19T12:00:46;97340.97;;;22.29;100.00
55914;BME280;58179;48.776;9.124;2023-09-19T12:03:21;97332.75;;;22.26;100.00
55914;BME280;58179;48.776;9.124;2023-09-19T12:05:48;97323.31;;;22.11;100.00
55914;BME280;58179;48.776;9.124;2023-09-19T12:08:15;97330.06;;;22.47;100.00
55914;BME280;58179;48.776;9.124;2023-09-19T12:10:47;97317.97;;;22.73;100.00
55914;BME280;58179;48.776;9.124;2023-09-19T12:13:17;97312.69;;;22.56;100.00
55914;BME280;58179;48.776;9.124;2023-09-19T12:15:44;97310.94;;;22.93;100.00
55914;BME280;58179;48.776;9.124;2023-09-19T12:18:26;97308.16;;;23.02;100.00
55914;BME280;58179;48.776;9.124;2023-09-19T12:20:53;97301.72;;;22.94;100.00
55914;BME280;58179;48.776;9.124;2023-09-19T12:23:20;97301.06;;;23.30;100.00
55914;BME280;58179;48.776;9.124;2023-09-19T12:25:47;97303.13;;;23.70;100.00
55914;BME280;58179;48.776;9.124;2023-09-19T12:28:14;97308.63;;;23.61;100.00
55914;BME280;58179;48.776;9.124;2023-09-19T12:30:44;97291.06;;;23.91;100.00
55914;BME280;58179;48.776;9.124;2023-09-19T12:33:16;97283.16;;;23.99;100.00
55914;BME280;58179;48.776;9.124;2023-09-19T12:35:45;97286.84;;;24.30;100.00
55914;BME280;58179;48.776;9.124;2023-09-19T12:38:21;97276.72;;;24.83;100.00
55914;BME280;58179;48.776;9.124;2023-09-19T12:40:49;97275.25;;;25.45;100.00
55914;BME280;58179;48.776;9.124;2023-09-19T12:43:17;97273.75;;;26.30;100.00
55914;BME280;58179;48.776;9.124;2023-09-19T12:45:45;97273.50;;;27.15;100.00
55914;BME280;58179;48.776;9.124;2023-09-19T12:48:20;97254.63;;;26.61;94.53
55914;BME280;58179;48.776;9.124;2023-09-19T12:51:03;97263.84;;;25.87;80.41
55914;BME280;58179;48.776;9.124;2023-09-19T12:53:32;97265.47;;;26.42;100.00
55914;BME280;58179;48.776;9.124;2023-09-19T12:55:59;97261.94;;;27.45;100.00
55914;BME280;58179;48.776;9.124;2023-09-19T12:58:26;97259.44;;;27.32;83.55
55914;BME280;58179;48.776;9.124;2023-09-19T13:00:54;97268.09;;;28.43;100.00
55914;BME280;58179;48.776;9.124;2023-09-19T13:03:26;97263.25;;;28.30;73.47
55914;BME280;58179;48.776;9.124;2023-09-19T13:05:55;97259.22;;;28.50;93.48
55914;BME280;58179;48.776;9.124;2023-09-19T13:08:26;97262.22;;;28.71;100.00
55914;BME280;58179;48.776;9.124;2023-09-19T13:11:10;97258.88;;;27.95;98.81
55914;BME280;58179;48.776;9.124;2023-09-19T13:13:37;97263.94;;;27.70;100.00
55914;BME280;58179;48.776;9.124;2023-09-19T13:16:05;97265.59;;;26.87;80.64
55914;BME280;58179;48.776;9.124;2023-09-19T13:18:42;97269.38;;;27.25;100.00
55914;BME280;58179;48.776;9.124;2023-09-19T13:21:11;97269.81;;;27.04;100.00
55914;BME280;58179;48.776;9.124;2023-09-19T13:23:51;97258.19;;;26.46;100.00